Time;durP1;ratioP1;P1;durP2;ratioP2;P2;SDS_P1;SDS_P2;PMS_P1;PMS_P2;Temp;Humidity;BMP_temperature;BMP_pressure;BME280_temperature;BME280_humidity;BME280_pressure;Samples;Min_cycle;Max_cycle;Signal;HPM_P1;HPM_P2
2022/07/03 00:00:26;;;;;;;5.28;3.33;;;;;;;15.51;83.04;101585.34;4819166;29;20034;-85
2022/07/03 00:02:51;;;;;;;6.83;3.30;;;;;;;15.44;84.11;101589.13;4820109;29;20030;-85
2022/07/03 00:05:17;;;;;;;5.93;3.50;;;;;;;15.34;84.56;101586.44;4821397;29;20062;-85
2022/07/03 00:07:43;;;;;;;5.28;3.50;;;;;;;15.25;85.16;101578.09;4820633;29;20038;-86
2022/07/03 00:10:09;;;;;;;10.03;3.83;;;;;;;15.16;86.04;101589.69;4805086;29;20042;-86
2022/07/03 00:12:34;;;;;;;6.63;3.58;;;;;;;15.21;85.29;101590.50;4819762;29;20018;-87
2022/07/03 00:14:59;;;;;;;6.70;3.67;;;;;;;15.14;85.59;101592.66;4819557;29;20038;-87
2022/07/03 00:17:24;;;;;;;5.43;3.90;;;;;;;15.09;85.92;101590.75;4821260;29;20066;-87
2022/07/03 00:19:50;;;;;;;5.43;3.97;;;;;;;15.03;85.97;101581.06;4821310;29;20166;-87
2022/07/03 00:22:15;;;;;;;6.07;4.07;;;;;;;14.97;86.36;101585.63;4819392;29;20030;-87
2022/07/03 00:24:49;;;;;;;6.37;4.07;;;;;;;14.96;86.44;101597.53;4820298;29;20026;-86
2022/07/03 00:27:17;;;;;;;7.03;4.10;;;;;;;14.92;87.23;101609.94;4807367;29;20038;-86
2022/07/03 00:29:43;;;;;;;6.40;3.58;;;;;;;14.88;87.10;101597.25;4819684;29;20146;-86
2022/07/03 00:32:21;;;;;;;5.97;4.00;;;;;;;14.84;87.08;101613.13;4818980;29;20408;-86
2022/07/03 00:34:49;;;;;;;6.80;4.65;;;;;;;14.77;88.25;101626.88;4802041;29;20065;-87
2022/07/03 00:37:14;;;;;;;6.93;6.07;;;;;;;14.69;87.91;101628.22;4816211;29;20035;-86
2022/07/03 00:39:44;;;;;;;11.47;7.63;;;;;;;14.63;87.88;101626.53;4820866;29;20299;-86
2022/07/03 00:42:11;;;;;;;9.38;6.18;;;;;;;14.65;87.69;101637.88;4821089;29;20038;-87
2022/07/03 00:44:48;;;;;;;9.30;5.77;;;;;;;14.58;87.82;101631.13;4820204;29;20034;-86
2022/07/03 00:47:17;;;;;;;5.70;4.80;;;;;;;14.58;87.84;101634.63;4820539;29;20295;-86
2022/07/03 00:49:46;;;;;;;11.43;5.10;;;;;;;14.61;87.87;101630.59;4820180;29;20046;-87
2022/07/03 00:52:12;;;;;;;8.73;5.07;;;;;;;14.59;87.62;101630.03;4819967;29;20087;-86
2022/07/03 00:54:41;;;;;;;6.47;4.70;;;;;;;14.56;88.03;101635.97;4820660;29;20411;-86
2022/07/03 00:57:13;;;;;;;5.68;4.70;;;;;;;14.51;88.29;101629.50;4820742;29;20041;-86
2022/07/03 00:59:38;;;;;;;7.03;4.53;;;;;;;14.47;88.57;101624.88;4819445;29;20030;-86
2022/07/03 01:02:18;;;;;;;6.60;4.50;;;;;;;14.36;88.44;101605.16;4809223;29;20030;-86
2022/07/03 01:05:10;;;;;;;6.57;4.53;;;;;;;14.44;87.66;101618.13;4817186;29;20031;-86
2022/07/03 01:08:03;;;;;;;6.93;4.05;;;;;;;14.39;87.57;101620.81;4819673;29;20050;-86
2022/07/03 01:11:10;;;;;;;6.00;4.60;;;;;;;14.33;88.17;101625.38;4819201;29;20034;-86
2022/07/03 01:13:44;;;;;;;7.25;4.40;;;;;;;14.31;88.64;101615.94;4820061;29;20038;-86
2022/07/03 01:16:24;;;;;;;6.43;4.40;;;;;;;14.22;89.55;101621.03;4820649;29;20068;-85
2022/07/03 01:19:23;;;;;;;5.67;4.30;;;;;;;14.19;89.52;101621.53;4817884;29;20034;-86
2022/07/03 01:22:02;;;;;;;5.20;4.50;;;;;;;14.15;89.59;101625.84;4815982;29;20444;-86
2022/07/03 01:24:39;;;;;;;8.00;4.75;;;;;;;14.10;90.33;101634.72;4820000;29;20042;-86
2022/07/03 01:27:10;;;;;;;5.72;4.28;;;;;;;14.08;90.87;101626.06;4820248;29;20026;-86
2022/07/03 01:29:58;;;;;;;10.13;4.78;;;;;;;14.04;90.76;101625.78;4820228;29;20105;-88
2022/07/03 01:32:30;;;;;;;7.18;4.68;;;;;;;14.02;91.35;101629.81;4818643;29;20106;-88
2022/07/03 01:35:00;;;;;;;11.45;4.97;;;;;;;14.01;90.82;101625.50;4819393;29;20522;-86
2022/07/03 01:37:29;;;;;;;10.25;4.82;;;;;;;14.02;91.11;101627.13;4816128;29;20030;-91
2022/07/03 01:39:57;;;;;;;5.85;4.43;;;;;;;13.93;91.38;101624.09;4821565;29;20030;-89
2022/07/03 01:42:24;;;;;;;6.38;4.88;;;;;;;13.91;91.24;101627.06;4820267;29;20041;-87
2022/07/03 01:44:52;;;;;;;10.47;4.50;;;;;;;13.91;91.56;101615.47;4821882;29;20503;-91
2022/07/03 01:47:18;;;;;;;6.73;4.57;;;;;;;13.90;91.31;101620.06;4821172;29;20335;-88
2022/07/03 01:49:44;;;;;;;4.90;4.32;;;;;;;13.83;91.10;101614.06;4821587;29;20080;-90
2022/07/03 01:52:11;;;;;;;6.03;4.45;;;;;;;13.80;90.88;101605.72;4821286;29;20076;-89
2022/07/03 01:54:39;;;;;;;7.22;4.78;;;;;;;13.78;91.35;101627.53;4817101;29;20030;-90
2022/07/03 01:57:05;;;;;;;6.30;4.63;;;;;;;13.75;91.70;101626.16;4814099;29;20065;-90
2022/07/03 01:59:31;;;;;;;6.90;4.47;;;;;;;13.73;91.66;101630.97;4812992;29;20030;-90
2022/07/03 02:02:22;;;;;;;6.47;4.27;;;;;;;13.72;90.87;101626.66;4824688;29;20055;-90
2022/07/03 02:04:50;;;;;;;5.68;4.60;;;;;;;13.71;92.22;101622.34;4825322;29;20034;-90
2022/07/03 02:07:28;;;;;;;5.45;4.20;;;;;;;13.70;91.58;101619.94;4826330;29;20038;-90
2022/07/03 02:10:07;;;;;;;7.07;4.50;;;;;;;13.63;91.49;101617.47;4822357;29;20563;-90
2022/07/03 02:12:40;;;;;;;6.70;4.57;;;;;;;13.59;91.90;101624.44;4822034;29;20326;-90
2022/07/03 02:15:08;;;;;;;8.38;4.38;;;;;;;13.57;91.97;101610.41;4827459;29;20042;-90
2022/07/03 02:17:51;;;;;;;4.47;3.95;;;;;;;13.46;90.80;101590.69;4823527;29;20636;-90
2022/07/03 02:20:17;;;;;;;8.23;4.20;;;;;;;13.53;91.35;101601.22;4824959;29;20026;-88
2022/07/03 02:22:46;;;;;;;5.80;4.25;;;;;;;13.48;92.29;101602.00;4823164;29;20038;-92
2022/07/03 02:25:29;;;;;;;6.97;4.15;;;;;;;13.42;91.42;101597.66;4822017;29;20027;-88
2022/07/03 02:28:04;;;;;;;6.57;4.20;;;;;;;13.36;91.85;101602.16;4820300;29;20034;-88
2022/07/03 02:30:33;;;;;;;5.80;4.37;;;;;;;13.33;91.75;101599.97;4821155;29;20343;-87
2022/07/03 02:33:01;;;;;;;6.05;3.97;;;;;;;13.28;92.37;101608.81;4822219;29;20058;-87
2022/07/03 02:35:30;;;;;;;7.25;4.47;;;;;;;13.25;92.37;101605.84;4822410;29;20388;-87
2022/07/03 02:38:03;;;;;;;9.63;4.57;;;;;;;13.22;92.92;101612.56;4823271;29;20057;-89
2022/07/03 02:40:56;;;;;;;4.75;4.00;;;;;;;13.17;91.61;101609.81;4822806;29;20041;-88
2022/07/03 02:43:41;;;;;;;7.15;4.10;;;;;;;13.17;92.50;101618.69;4820191;29;20030;-88
2022/07/03 02:46:49;;;;;;;6.95;4.60;;;;;;;13.13;92.17;101614.06;4822500;29;20091;-88
2022/07/03 02:49:14;;;;;;;6.82;4.47;;;;;;;13.09;93.04;101611.09;4805441;29;20506;-89
2022/07/03 02:51:46;;;;;;;5.10;4.20;;;;;;;13.02;92.76;101614.00;4816399;29;20027;-88
2022/07/03 02:54:14;;;;;;;6.05;4.18;;;;;;;13.09;92.94;101613.78;4822857;29;20403;-89
2022/07/03 02:57:04;;;;;;;5.18;3.90;;;;;;;13.04;92.76;101613.72;4821394;29;20575;-88
2022/07/03 02:59:55;;;;;;;7.43;4.20;;;;;;;12.98;92.44;101609.34;4821671;29;20057;-87
2022/07/03 03:02:29;;;;;;;6.53;3.93;;;;;;;12.96;92.85;101601.56;4804568;29;20288;-87
2022/07/03 03:05:02;;;;;;;5.53;4.10;;;;;;;12.96;92.96;101608.81;4805022;29;20031;-88
2022/07/03 03:07:41;;;;;;;7.32;4.03;;;;;;;12.90;92.92;101607.94;4805037;29;20039;-87
2022/07/03 03:10:08;;;;;;;6.00;3.90;;;;;;;12.85;93.26;101592.56;4811654;29;20034;-87
2022/07/03 03:12:37;;;;;;;6.97;3.97;;;;;;;12.79;94.04;101606.22;4815917;29;20038;-87
2022/07/03 03:15:04;;;;;;;6.07;3.88;;;;;;;12.79;94.30;101607.03;4819850;29;20484;-87
2022/07/03 03:17:51;;;;;;;8.50;4.25;;;;;;;12.68;94.71;101603.44;4820621;29;20046;-87
2022/07/03 03:20:18;;;;;;;5.88;4.15;;;;;;;12.69;94.55;101606.94;4820437;29;20030;-89
2022/07/03 03:22:52;;;;;;;5.82;4.13;;;;;;;12.68;95.52;101621.44;4822775;29;20031;-88
2022/07/03 03:25:17;;;;;;;7.67;4.40;;;;;;;12.61;95.01;101613.56;4869520;24;20135;-86
2022/07/03 03:27:43;;;;;;;4.97;4.27;;;;;;;12.61;95.99;101616.25;4848354;29;20322;-84
2022/07/03 03:30:09;;;;;;;5.07;4.20;;;;;;;12.59;96.18;101621.06;4840071;29;20154;-83
2022/07/03 03:32:35;;;;;;;6.68;4.10;;;;;;;12.62;96.32;101617.06;4840866;29;20030;-83
2022/07/03 03:35:01;;;;;;;4.40;3.90;;;;;;;12.65;96.09;101624.63;4823491;29;20045;-84
2022/07/03 03:37:26;;;;;;;5.60;3.97;;;;;;;12.70;96.35;101624.69;4822733;29;20038;-83
2022/07/03 03:39:52;;;;;;;5.63;4.10;;;;;;;12.74;95.39;101623.13;4821785;29;20034;-83
2022/07/03 03:42:17;;;;;;;4.57;4.10;;;;;;;12.80;94.84;101624.00;4821926;29;20057;-83
2022/07/03 03:44:42;;;;;;;6.07;4.30;;;;;;;12.83;95.07;101626.97;4821988;29;20041;-83
2022/07/03 03:47:09;;;;;;;5.40;4.13;;;;;;;12.86;94.63;101629.16;4819912;29;20064;-84
2022/07/03 03:49:34;;;;;;;5.72;4.20;;;;;;;12.93;94.68;101625.47;4822154;29;20053;-85
2022/07/03 03:52:00;;;;;;;4.70;4.20;;;;;;;12.99;94.81;101629.81;4821384;29;20479;-85
2022/07/03 03:54:25;;;;;;;4.72;4.13;;;;;;;13.01;93.73;101625.81;4821957;29;20046;-86
2022/07/03 03:56:50;;;;;;;6.20;4.10;;;;;;;13.11;93.66;101625.09;4821479;29;20046;-88
2022/07/03 03:59:16;;;;;;;4.70;4.23;;;;;;;13.21;93.24;101629.78;4821732;29;20062;-87
2022/07/03 04:01:45;;;;;;;5.17;3.97;;;;;;;13.29;93.70;101636.56;4821871;29;20027;-84
2022/07/03 04:04:12;;;;;;;6.43;4.00;;;;;;;13.33;92.80;101632.25;4821167;29;20035;-85
2022/07/03 04:06:37;;;;;;;9.65;4.13;;;;;;;13.35;91.96;101622.06;4821219;29;20403;-86
2022/07/03 04:09:02;;;;;;;6.10;3.97;;;;;;;13.40;92.67;101627.53;4819243;29;20030;-86
2022/07/03 04:11:28;;;;;;;5.17;3.63;;;;;;;13.37;92.38;101633.38;4803124;29;20129;-85
2022/07/03 04:13:53;;;;;;;5.72;4.13;;;;;;;13.30;92.89;101619.34;4803633;29;20044;-82
2022/07/03 04:16:18;;;;;;;5.03;4.53;;;;;;;13.38;92.37;101624.25;4813108;29;20018;-85
2022/07/03 04:18:44;;;;;;;6.23;4.67;;;;;;;13.33;92.75;101616.94;4833910;29;20030;-84
2022/07/03 04:21:09;;;;;;;5.50;4.40;;;;;;;13.40;92.70;101632.06;4821230;29;20035;-85
2022/07/03 04:23:34;;;;;;;5.03;4.53;;;;;;;13.42;92.38;101630.78;4821309;29;20031;-85
2022/07/03 04:26:04;;;;;;;5.93;4.55;;;;;;;13.39;92.69;101633.16;5005334;23;20049;-84
2022/07/03 04:28:30;;;;;;;7.20;4.57;;;;;;;13.36;92.79;101628.28;4834715;29;20035;-85
2022/07/03 04:31:05;;;;;;;6.70;4.53;;;;;;;13.35;92.32;101630.13;4837742;29;20818;-84
2022/07/03 04:33:30;;;;;;;6.43;4.68;;;;;;;13.35;92.85;101638.22;4838955;29;20030;-84
2022/07/03 04:35:55;;;;;;;7.17;4.43;;;;;;;13.38;93.32;101639.59;4840153;29;20025;-83
2022/07/03 04:38:20;;;;;;;7.17;4.27;;;;;;;13.47;92.97;101643.44;4838961;29;20029;-84
2022/07/03 04:40:46;;;;;;;5.67;4.13;;;;;;;13.58;92.72;101642.47;4837189;29;20042;-84
2022/07/03 04:43:11;;;;;;;8.77;4.55;;;;;;;13.73;92.91;101639.06;4838574;29;20042;-84
2022/07/03 04:45:36;;;;;;;8.27;4.87;;;;;;;13.99;92.62;101651.88;4837272;29;20065;-84
2022/07/03 04:48:08;;;;;;;8.93;4.67;;;;;;;14.50;90.81;101648.63;4838416;29;20034;-84
2022/07/03 04:50:33;;;;;;;8.65;4.60;;;;;;;15.00;88.76;101654.47;4837288;29;20693;-84
2022/07/03 04:52:59;;;;;;;7.23;4.70;;;;;;;15.60;87.04;101649.34;4838810;29;20029;-84
2022/07/03 04:55:24;;;;;;;6.70;3.87;;;;;;;16.89;81.84;101668.94;4836655;29;20033;-84
2022/07/03 04:57:49;;;;;;;4.87;3.77;;;;;;;18.16;74.34;101659.22;4836257;29;20034;-84
2022/07/03 05:00:15;;;;;;;4.90;3.40;;;;;;;18.36;71.43;101657.34;4836741;29;20314;-84
2022/07/03 05:02:40;;;;;;;4.50;3.30;;;;;;;17.99;72.52;101657.78;4837915;29;20078;-84
2022/07/03 05:05:06;;;;;;;3.93;3.27;;;;;;;18.73;71.06;101664.72;4838636;29;20029;-84
2022/07/03 05:07:34;;;;;;;8.05;3.80;;;;;;;19.71;67.37;101669.75;4838366;29;20038;-84
2022/07/03 05:09:59;;;;;;;6.37;3.80;;;;;;;19.95;65.26;101666.88;4838887;29;20042;-84
2022/07/03 05:12:25;;;;;;;4.20;3.27;;;;;;;20.40;62.98;101650.75;4838725;29;20375;-84
2022/07/03 05:14:50;;;;;;;4.20;3.33;;;;;;;21.05;60.95;101653.44;4837828;29;20475;-84
2022/07/03 05:17:18;;;;;;;3.90;3.10;;;;;;;21.63;59.47;101668.09;4839320;29;20030;-84
2022/07/03 05:19:43;;;;;;;7.55;3.08;;;;;;;21.48;58.58;101669.25;4837634;29;20166;-84
2022/07/03 05:22:08;;;;;;;7.57;3.30;;;;;;;20.84;60.50;101672.16;4838438;29;20034;-84
2022/07/03 05:24:34;;;;;;;5.03;2.93;;;;;;;19.99;62.70;101678.00;4838000;29;20035;-83
2022/07/03 05:26:59;;;;;;;3.58;3.08;;;;;;;19.04;64.80;101671.66;4834573;29;20029;-84
2022/07/03 05:29:24;;;;;;;3.97;2.90;;;;;;;18.79;66.63;101675.53;4835201;29;20038;-86
2022/07/03 05:31:49;;;;;;;5.03;2.77;;;;;;;19.20;65.75;101674.94;4836056;29;20037;-86
2022/07/03 05:34:15;;;;;;;5.20;3.30;;;;;;;19.63;63.87;101671.25;4837448;29;20535;-85
2022/07/03 05:36:40;;;;;;;5.73;3.20;;;;;;;20.69;61.44;101670.56;4836802;29;20041;-87
2022/07/03 05:41:49;;;;;;;5.78;2.63;;;;;;;20.12;61.92;101682.63;4837426;29;20098;-86
2022/07/03 05:44:14;;;;;;;5.50;2.70;;;;;;;20.73;60.46;101675.09;4837394;29;20046;-86
2022/07/03 05:46:40;;;;;;;3.35;2.58;;;;;;;21.55;58.31;101684.38;4831656;29;20121;-90
2022/07/03 05:49:05;;;;;;;4.47;2.60;;;;;;;21.88;56.35;101673.97;4837791;29;20046;-86
2022/07/03 05:51:30;;;;;;;3.97;2.63;;;;;;;21.59;56.86;101677.97;4834316;29;20026;-86
2022/07/03 05:53:56;;;;;;;7.33;2.83;;;;;;;21.74;57.06;101690.44;4843953;23;20511;-87
2022/07/03 05:56:24;;;;;;;5.90;2.70;;;;;;;22.11;55.93;101684.81;4823591;29;20042;-86
2022/07/03 05:58:50;;;;;;;6.35;2.80;;;;;;;22.21;55.20;101687.25;4819295;29;20034;-87
2022/07/03 06:01:15;;;;;;;7.80;2.90;;;;;;;22.29;55.38;101684.84;4816749;29;20068;-87
2022/07/03 06:03:40;;;;;;;7.75;3.00;;;;;;;22.23;55.38;101679.56;4821273;29;20031;-86
2022/07/03 06:06:06;;;;;;;4.80;2.63;;;;;;;22.26;55.60;101688.25;4836232;29;20061;-87
2022/07/03 06:08:31;;;;;;;3.83;2.90;;;;;;;22.09;55.40;101678.88;4841255;29;20033;-86
2022/07/03 06:10:56;;;;;;;5.67;2.90;;;;;;;22.02;55.66;101690.22;4840296;29;20034;-86
2022/07/03 06:13:22;;;;;;;3.40;2.47;;;;;;;21.78;56.59;101682.44;4840621;29;20041;-85
2022/07/03 06:15:47;;;;;;;5.83;3.03;;;;;;;21.47;57.80;101694.91;4841312;29;20082;-87
2022/07/03 06:18:12;;;;;;;4.75;2.60;;;;;;;21.25;58.75;101690.28;4835403;29;20082;-87
2022/07/03 06:20:37;;;;;;;4.77;2.67;;;;;;;21.09;59.31;101705.38;4832518;29;20034;-87
2022/07/03 06:23:03;;;;;;;4.33;2.80;;;;;;;20.82;60.13;101694.25;4838270;29;20041;-87
2022/07/03 06:25:28;;;;;;;6.63;3.20;;;;;;;20.75;60.74;101699.28;4838007;29;20116;-87
2022/07/03 06:27:53;;;;;;;6.30;3.33;;;;;;;20.58;61.25;101694.47;4840156;29;20038;-87
2022/07/03 06:30:19;;;;;;;5.37;3.10;;;;;;;20.43;62.01;101699.16;4831799;29;20049;-87
2022/07/03 06:32:45;;;;;;;9.00;3.28;;;;;;;20.18;62.83;101695.00;4837993;29;20054;-86
2022/07/03 06:35:10;;;;;;;8.47;3.20;;;;;;;20.08;63.61;101698.75;4836472;29;20102;-87
2022/07/03 06:37:35;;;;;;;5.90;3.03;;;;;;;19.97;64.07;101703.56;4835696;29;20058;-83
2022/07/03 06:40:01;;;;;;;5.50;3.30;;;;;;;19.89;64.12;101711.63;4836416;29;20073;-83
2022/07/03 06:42:26;;;;;;;6.57;3.10;;;;;;;20.09;65.30;101708.50;4837578;29;20495;-87
2022/07/03 06:44:51;;;;;;;6.07;3.20;;;;;;;20.06;64.56;101698.25;4842626;29;20078;-90
2022/07/03 06:47:16;;;;;;;7.70;3.70;;;;;;;20.04;64.77;101695.00;4841755;29;20034;-89
2022/07/03 06:49:43;;;;;;;8.43;3.13;;;;;;;20.11;64.78;101695.41;4841020;29;20044;-87
2022/07/03 06:52:09;;;;;;;5.28;3.17;;;;;;;20.04;65.47;101692.28;4839337;29;20037;-89
2022/07/03 06:54:37;;;;;;;7.00;3.33;;;;;;;19.93;65.63;101686.25;4841470;29;20037;-91
2022/07/03 06:57:03;;;;;;;7.75;3.08;;;;;;;19.87;65.76;101700.19;4839643;29;20030;-89
2022/07/03 06:59:29;;;;;;;9.83;2.93;;;;;;;19.88;66.67;101710.81;4839560;29;20541;-88
2022/07/03 07:01:54;;;;;;;4.85;2.83;;;;;;;19.86;66.12;101706.75;4830154;29;20038;-87
2022/07/03 07:04:19;;;;;;;6.13;2.93;;;;;;;19.87;66.11;101703.75;4841471;29;20034;-90
2022/07/03 07:06:45;;;;;;;9.53;3.43;;;;;;;20.18;65.96;101697.72;4833451;29;20019;-86
2022/07/03 07:09:10;;;;;;;8.93;3.50;;;;;;;20.49;64.89;101708.00;4836719;29;20037;-90
2022/07/03 07:11:49;;;;;;;4.63;3.33;;;;;;;20.65;63.97;101692.13;4827214;29;20117;-86
2022/07/03 07:14:14;;;;;;;5.53;3.03;;;;;;;20.79;63.07;101697.59;4841582;29;20036;-88
2022/07/03 07:16:40;;;;;;;5.37;3.13;;;;;;;20.92;63.65;101701.41;4839686;29;20127;-87
2022/07/03 07:19:06;;;;;;;8.80;3.38;;;;;;;20.87;64.22;101696.88;4841393;29;20454;-87
2022/07/03 07:21:31;;;;;;;6.03;3.17;;;;;;;20.91;62.93;101701.72;4837294;29;20106;-88
2022/07/03 07:23:56;;;;;;;4.88;2.60;;;;;;;20.93;62.42;101700.28;4841671;29;20040;-89
2022/07/03 07:26:21;;;;;;;4.63;2.30;;;;;;;20.96;62.00;101702.41;4839731;29;20125;-88
2022/07/03 07:28:47;;;;;;;5.47;2.50;;;;;;;20.85;63.34;101709.16;4840624;29;20483;-88
2022/07/03 07:31:12;;;;;;;6.97;2.97;;;;;;;20.78;61.60;101706.09;4829657;29;20125;-88
2022/07/03 07:33:37;;;;;;;6.37;2.60;;;;;;;20.81;62.39;101713.66;4822331;29;20050;-89
2022/07/03 07:36:03;;;;;;;4.37;2.97;;;;;;;20.65;61.74;101707.69;4832734;29;20090;-87
2022/07/03 07:38:28;;;;;;;5.43;2.55;;;;;;;20.72;61.25;101708.88;4841070;29;20044;-88
2022/07/03 07:40:54;;;;;;;7.73;3.20;;;;;;;20.87;61.17;101715.13;4840649;29;20026;-86
2022/07/03 07:43:19;;;;;;;8.70;3.30;;;;;;;20.79;61.73;101721.31;4839222;29;20120;-87
2022/07/03 07:45:44;;;;;;;8.00;3.10;;;;;;;20.96;62.02;101720.66;4839706;29;20030;-87
2022/07/03 07:48:10;;;;;;;8.88;3.05;;;;;;;21.20;61.14;101719.56;4838947;29;20027;-87
2022/07/03 07:50:35;;;;;;;7.23;2.97;;;;;;;21.54;60.57;101716.28;4839536;29;20483;-87
2022/07/03 07:53:00;;;;;;;5.77;3.17;;;;;;;21.58;60.34;101714.53;4829236;29;20040;-86
2022/07/03 07:55:26;;;;;;;8.50;2.90;;;;;;;21.63;60.67;101721.84;4832178;29;20045;-88
2022/07/03 07:57:51;;;;;;;5.53;2.90;;;;;;;21.57;60.26;101718.38;4838972;29;20051;-88
2022/07/03 08:00:18;;;;;;;8.93;3.25;;;;;;;21.58;61.43;101719.97;4840010;29;20030;-88
2022/07/03 08:05:35;;;;;;;4.87;2.37;;;;;;;21.48;60.53;101720.25;4829937;29;20078;-88
2022/07/03 08:08:12;;;;;;;8.50;2.70;;;;;;;21.56;59.11;101737.78;4839995;29;20315;-87
2022/07/03 08:10:45;;;;;;;6.20;2.80;;;;;;;21.58;58.58;101719.97;4839770;29;20574;-86
2022/07/03 08:13:12;;;;;;;6.90;3.28;;;;;;;21.59;58.39;101727.06;4833502;29;20460;-88
2022/07/03 08:15:38;;;;;;;5.68;2.80;;;;;;;21.84;59.57;101733.00;4830838;29;20042;-87
2022/07/03 08:18:05;;;;;;;5.80;3.08;;;;;;;21.94;58.75;101721.03;4823896;29;20038;-87
2022/07/03 08:20:30;;;;;;;4.18;2.60;;;;;;;21.97;58.40;101722.31;4829716;29;20045;-88
2022/07/03 08:22:55;;;;;;;5.73;2.97;;;;;;;21.92;57.07;101724.06;4840350;29;20053;-87
2022/07/03 08:25:21;;;;;;;5.18;2.50;;;;;;;22.26;57.30;101732.69;4839791;29;20041;-88
2022/07/03 08:27:47;;;;;;;4.93;2.70;;;;;;;22.41;58.78;101727.94;4835746;29;20049;-87
2022/07/03 08:30:17;;;;;;;5.53;2.70;;;;;;;22.38;56.28;101729.38;4838838;29;20061;-88
2022/07/03 08:32:45;;;;;;;5.03;2.58;;;;;;;22.55;56.67;101728.63;4839782;29;20151;-88
2022/07/03 08:35:11;;;;;;;6.22;2.67;;;;;;;22.63;56.10;101730.59;4839927;29;20436;-87
2022/07/03 08:37:36;;;;;;;5.20;2.60;;;;;;;22.50;56.85;101721.41;4840075;29;20033;-88
2022/07/03 08:40:03;;;;;;;3.37;2.50;;;;;;;22.61;54.93;101715.66;4839591;29;20110;-88
2022/07/03 08:42:30;;;;;;;6.97;2.42;;;;;;;23.09;56.15;101719.41;4839549;29;20107;-88
2022/07/03 08:44:58;;;;;;;4.20;2.28;;;;;;;23.14;53.07;101722.75;4831512;29;20109;-88
2022/07/03 08:47:26;;;;;;;3.65;2.03;;;;;;;23.26;54.88;101730.34;4838378;29;20491;-85
2022/07/03 08:49:54;;;;;;;4.60;2.00;;;;;;;23.33;54.01;101713.44;4839896;29;20034;-85
2022/07/03 08:52:22;;;;;;;4.80;2.53;;;;;;;23.27;54.45;101712.81;4838910;29;20386;-86
2022/07/03 09:00:07;;;;;;;4.38;2.95;;;;;;;23.56;55.15;101730.47;5038310;23;20070;-87
2022/07/03 09:02:33;;;;;;;7.72;3.42;;;;;;;23.43;55.09;101718.56;4821232;29;20038;-86
2022/07/03 09:08:14;;;;;;;5.40;3.20;;;;;;;23.21;55.94;101716.00;4904823;24;20099;-86
2022/07/03 09:10:39;;;;;;;4.07;2.10;;;;;;;23.25;54.90;101706.03;4838845;29;20041;-85
2022/07/03 09:13:05;;;;;;;5.70;2.73;;;;;;;23.39;54.38;101720.34;4829247;29;20295;-86
2022/07/03 09:15:30;;;;;;;4.57;2.13;;;;;;;23.50;53.67;101720.00;4813491;29;20066;-87
2022/07/03 09:18:14;;;;;;;5.33;2.10;;;;;;;23.66;53.19;101721.09;4839361;29;20037;-88
2022/07/03 09:20:43;;;;;;;3.33;2.28;;;;;;;23.87;51.63;101721.19;4838907;29;20090;-86
2022/07/03 09:23:13;;;;;;;5.38;2.00;;;;;;;24.11;51.95;101727.25;4839231;29;20505;-86
2022/07/03 09:25:54;;;;;;;4.63;2.20;;;;;;;24.40;51.59;101720.19;4837263;29;20034;-86
2022/07/03 09:28:20;;;;;;;5.13;2.30;;;;;;;24.50;50.34;101726.09;4826165;29;20050;-84
2022/07/03 09:31:06;;;;;;;3.38;2.00;;;;;;;24.83;50.87;101723.78;4836884;29;20513;-86
2022/07/03 09:33:31;;;;;;;5.03;2.17;;;;;;;25.16;48.98;101728.53;4837922;29;20094;-85
2022/07/03 09:35:56;;;;;;;6.80;2.90;;;;;;;25.03;47.44;101731.22;4839191;29;20026;-86
2022/07/03 09:38:22;;;;;;;5.83;2.13;;;;;;;25.01;48.81;101729.97;4838729;29;20022;-86
2022/07/03 09:40:51;;;;;;;3.45;2.00;;;;;;;25.33;48.33;101730.31;4838858;29;20030;-86
2022/07/03 09:43:23;;;;;;;4.80;2.50;;;;;;;25.64;47.09;101735.34;4837194;29;20384;-86
2022/07/03 09:45:53;;;;;;;6.83;2.53;;;;;;;26.14;48.58;101741.72;4838634;29;20030;-87
2022/07/03 09:48:32;;;;;;;4.77;2.87;;;;;;;26.50;46.43;101739.31;4838986;29;20803;-87
2022/07/03 09:51:12;;;;;;;3.88;2.30;;;;;;;26.23;45.47;101747.09;4837900;29;20079;-88
2022/07/03 09:53:51;;;;;;;3.80;2.63;;;;;;;25.66;46.22;101740.50;4837898;29;20030;-84
2022/07/03 09:56:21;;;;;;;3.72;1.83;;;;;;;25.45;46.36;101732.31;4838917;29;20364;-84
2022/07/03 09:59:17;;;;;;;4.05;2.70;;;;;;;25.69;46.48;101737.06;4838559;29;20037;-87
2022/07/03 10:01:44;;;;;;;2.22;2.03;;;;;;;25.84;47.08;101743.84;4823930;29;20044;-85
2022/07/03 10:04:12;;;;;;;4.80;2.88;;;;;;;25.87;46.24;101739.63;4838790;29;20596;-85
2022/07/03 10:06:58;;;;;;;5.20;2.72;;;;;;;25.89;48.09;101740.09;4838801;29;20128;-85
2022/07/03 10:09:28;;;;;;;6.55;3.05;;;;;;;25.45;47.06;101732.31;4836303;29;20030;-87
2022/07/03 10:11:56;;;;;;;3.80;2.87;;;;;;;25.03;47.54;101738.63;4833729;29;20033;-86
2022/07/03 10:14:24;;;;;;;3.80;3.27;;;;;;;24.70;47.34;101745.66;4836869;29;20881;-87
2022/07/03 10:16:49;;;;;;;6.97;3.00;;;;;;;24.74;48.57;101743.81;4829825;29;20086;-86
2022/07/03 10:19:20;;;;;;;5.57;3.25;;;;;;;24.56;48.89;101745.88;4837118;29;20038;-84
2022/07/03 10:21:54;;;;;;;4.55;2.70;;;;;;;24.77;48.56;101745.13;4836654;29;20041;-86
2022/07/03 10:24:28;;;;;;;7.32;3.50;;;;;;;24.71;46.97;101733.56;4837237;29;20041;-87
2022/07/03 10:26:54;;;;;;;4.82;2.25;;;;;;;25.32;48.63;101736.94;4839525;29;20030;-84
2022/07/03 10:29:21;;;;;;;6.28;2.75;;;;;;;25.58;46.95;101735.88;4835229;29;20034;-85
2022/07/03 10:31:47;;;;;;;5.07;2.43;;;;;;;25.84;45.86;101746.56;4835281;29;20504;-86
2022/07/03 10:34:17;;;;;;;3.87;2.07;;;;;;;26.06;44.87;101753.59;4834092;29;20302;-87
2022/07/03 10:36:44;;;;;;;3.95;2.25;;;;;;;25.76;45.11;101748.28;4839572;29;20099;-83
2022/07/03 10:39:18;;;;;;;5.30;2.35;;;;;;;25.49;45.36;101747.78;4838884;29;20714;-84
2022/07/03 10:44:46;;;;;;;3.78;2.50;;;;;;;25.50;47.22;101749.38;4841749;29;20041;-84
2022/07/03 10:47:38;;;;;;;4.90;2.10;;;;;;;25.99;46.53;101758.84;4841432;29;20056;-84
2022/07/03 10:50:09;;;;;;;4.80;2.27;;;;;;;26.05;46.33;101754.75;4828928;29;20034;-85
2022/07/03 10:52:34;;;;;;;4.23;2.60;;;;;;;26.38;46.01;101753.06;4837872;29;20814;-85
2022/07/03 10:55:01;;;;;;;7.22;2.28;;;;;;;26.63;42.96;101758.53;4841298;29;20018;-82
2022/07/03 10:57:26;;;;;;;3.33;1.83;;;;;;;27.25;44.44;101766.63;4837052;29;20113;-82
2022/07/03 10:59:51;;;;;;;4.47;1.90;;;;;;;27.85;43.88;101755.69;4822927;29;20395;-81
2022/07/03 11:02:17;;;;;;;5.20;2.27;;;;;;;27.76;40.27;101746.78;4832361;29;20044;-81
2022/07/03 11:05:01;;;;;;;4.53;1.43;;;;;;;27.57;41.57;101756.53;4839590;29;20046;-80
2022/07/03 11:07:31;;;;;;;5.38;1.50;;;;;;;26.90;41.58;101743.25;4839850;29;20513;-81
2022/07/03 11:10:05;;;;;;;4.00;1.75;;;;;;;26.65;41.97;101757.03;4840815;29;20073;-82
2022/07/03 11:12:52;;;;;;;4.30;1.90;;;;;;;26.46;43.54;101754.88;4832772;29;20034;-83
2022/07/03 11:15:42;;;;;;;2.60;1.90;;;;;;;26.56;43.53;101764.59;4838439;29;20485;-82
2022/07/03 11:18:23;;;;;;;3.30;1.60;;;;;;;26.60;43.28;101755.31;4841161;29;20116;-82
2022/07/03 11:20:51;;;;;;;5.20;2.00;;;;;;;26.84;43.24;101752.91;4839356;29;20302;-82
2022/07/03 11:23:26;;;;;;;3.00;1.55;;;;;;;26.87;41.99;101744.75;4840442;29;20428;-82
2022/07/03 11:26:19;;;;;;;4.18;1.90;;;;;;;27.33;41.79;101747.22;4841173;29;20497;-81
2022/07/03 11:28:44;;;;;;;3.38;1.98;;;;;;;27.35;39.74;101739.44;4827765;29;20483;-81
2022/07/03 11:31:18;;;;;;;3.03;1.83;;;;;;;27.32;39.76;101733.81;4840043;29;20116;-81
2022/07/03 11:33:56;;;;;;;4.50;2.60;;;;;;;27.17;39.33;101732.63;4839593;29;20046;-81
2022/07/03 11:36:27;;;;;;;4.45;2.20;;;;;;;27.32;39.56;101729.13;4840676;29;20067;-81
2022/07/03 11:38:55;;;;;;;2.47;1.83;;;;;;;27.38;40.00;101728.88;4840834;29;20038;-81
2022/07/03 11:41:21;;;;;;;3.83;2.20;;;;;;;27.35;40.19;101719.34;4834782;29;20383;-82
2022/07/03 11:43:53;;;;;;;6.03;2.33;;;;;;;27.76;40.53;101722.00;4822483;29;20050;-81
2022/07/03 11:46:21;;;;;;;4.55;2.05;;;;;;;28.24;38.81;101724.75;4822344;29;20035;-81
2022/07/03 11:48:46;;;;;;;3.23;2.03;;;;;;;28.36;38.24;101719.16;4828940;29;20036;-81
2022/07/03 11:51:11;;;;;;;2.60;2.13;;;;;;;28.44;38.40;101722.03;4840141;29;20683;-81